Time;durP1;ratioP1;P1;durP2;ratioP2;P2;SDS_P1;SDS_P2;PMS_P1;PMS_P2;Temp;Humidity;BMP_temperature;BMP_pressure;BME280_temperature;BME280_humidity;BME280_pressure;Samples;Min_cycle;Max_cycle;Signal;HPM_P1;HPM_P2
2023/08/13 00:02:14;;;;;;;9.80;2.78;;;;;;;;;;4967966;28;20231;-68
2023/08/13 00:04:40;;;;;;;5.97;2.05;;;;;;;;;;4964952;28;20904;-68
2023/08/13 00:07:05;;;;;;;9.05;2.72;;;;;;;;;;4955496;28;20198;-68
2023/08/13 00:09:30;;;;;;;14.77;3.55;;;;;;;;;;4964959;28;20965;-68
2023/08/13 00:11:56;;;;;;;8.05;3.15;;;;;;;;;;4966743;28;20261;-68
2023/08/13 00:14:21;;;;;;;7.85;2.97;;;;;;;;;;4966152;28;20650;-68
2023/08/13 00:16:47;;;;;;;8.00;2.53;;;;;;;;;;4967801;28;20676;-68
2023/08/13 00:19:13;;;;;;;11.10;3.13;;;;;;;;;;4967835;28;20203;-68
2023/08/13 00:21:38;;;;;;;8.48;2.55;;;;;;;;;;4966027;28;20242;-68
2023/08/13 00:24:03;;;;;;;10.15;2.30;;;;;;;;;;4966624;28;20202;-68
2023/08/13 00:26:28;;;;;;;7.65;2.45;;;;;;;;;;4966268;28;20809;-68
2023/08/13 00:28:54;;;;;;;6.43;2.22;;;;;;;;;;4949477;28;20200;-68
2023/08/13 00:31:19;;;;;;;7.60;2.35;;;;;;;;;;4967621;28;20192;-68
2023/08/13 00:33:44;;;;;;;5.15;2.33;;;;;;;;;;4969265;28;20270;-67
2023/08/13 00:36:09;;;;;;;6.05;2.05;;;;;;;;;;4970288;28;20206;-67
2023/08/13 00:38:34;;;;;;;9.30;2.78;;;;;;;;;;4971293;28;20697;-67
2023/08/13 00:41:00;;;;;;;6.75;2.17;;;;;;;;;;4955991;28;20860;-67
2023/08/13 00:43:25;;;;;;;10.35;2.03;;;;;;;;;;4968202;28;20740;-68
2023/08/13 00:45:50;;;;;;;8.00;2.17;;;;;;;;;;4958489;28;20187;-68
2023/08/13 00:48:16;;;;;;;9.45;2.17;;;;;;;;;;4968531;28;20196;-68
2023/08/13 00:50:43;;;;;;;7.60;2.22;;;;;;;;;;4970778;28;20220;-68
2023/08/13 00:53:10;;;;;;;9.45;2.70;;;;;;;;;;4970800;28;20301;-68
2023/08/13 00:55:35;;;;;;;9.02;2.75;;;;;;;;;;4968181;28;20187;-68
2023/08/13 00:58:01;;;;;;;8.70;2.45;;;;;;;;;;4969454;28;20194;-68
2023/08/13 01:00:26;;;;;;;12.80;4.18;;;;;;;;;;4969296;28;20666;-68
2023/08/13 01:02:51;;;;;;;11.80;2.58;;;;;;;;;;4970842;28;21109;-67
2023/08/13 01:05:17;;;;;;;10.95;2.83;;;;;;;;;;4965512;28;20188;-67
2023/08/13 01:08:17;;;;;;;8.25;2.20;;;;;;;;;;4958953;28;20662;-67
2023/08/13 01:10:46;;;;;;;8.77;2.60;;;;;;;;;;4911553;29;20699;-66
2023/08/13 01:13:30;;;;;;;10.18;3.53;;;;;;;;;;4960413;28;20243;-66
2023/08/13 01:15:56;;;;;;;8.43;2.67;;;;;;;;;;4970298;28;20192;-67
2023/08/13 01:18:22;;;;;;;7.50;2.60;;;;;;;;;;4970257;28;20961;-67
2023/08/13 01:20:47;;;;;;;8.95;2.65;;;;;;;;;;4971424;28;20777;-68
2023/08/13 01:23:12;;;;;;;11.52;2.53;;;;;;;;;;4971315;28;20414;-67
2023/08/13 01:25:38;;;;;;;8.05;2.50;;;;;;;;;;4970746;28;20262;-68
2023/08/13 01:28:03;;;;;;;8.38;3.67;;;;;;;;;;4954649;28;20195;-68
2023/08/13 01:30:42;;;;;;;9.05;2.70;;;;;;;;;;4957769;28;20338;-67
2023/08/13 01:33:08;;;;;;;8.88;2.95;;;;;;;;;;4970641;28;20219;-68
2023/08/13 01:35:35;;;;;;;5.53;2.72;;;;;;;;;;4957276;28;20188;-68
2023/08/13 01:38:00;;;;;;;7.18;3.28;;;;;;;;;;4956545;28;20198;-68
2023/08/13 01:40:26;;;;;;;10.95;4.10;;;;;;;;;;4957688;28;20188;-67
2023/08/13 01:42:51;;;;;;;6.70;3.10;;;;;;;;;;4970212;28;20250;-67
2023/08/13 01:45:16;;;;;;;10.70;3.53;;;;;;;;;;4957514;28;20192;-68
2023/08/13 01:47:41;;;;;;;6.20;3.08;;;;;;;;;;4970500;28;20192;-67
2023/08/13 01:50:07;;;;;;;9.90;3.35;;;;;;;;;;4958266;28;20196;-68
2023/08/13 01:52:32;;;;;;;6.28;3.65;;;;;;;;;;4969162;28;20970;-67
2023/08/13 01:54:58;;;;;;;8.43;3.60;;;;;;;;;;4968919;28;20195;-68
2023/08/13 01:57:23;;;;;;;13.18;4.03;;;;;;;;;;4963121;28;20217;-67
2023/08/13 01:59:48;;;;;;;10.57;3.13;;;;;;;;;;4956027;28;20227;-67
2023/08/13 02:02:14;;;;;;;9.02;3.05;;;;;;;;;;4968270;28;21471;-68
2023/08/13 02:04:39;;;;;;;8.20;4.13;;;;;;;;;;4968603;28;20184;-67
2023/08/13 02:07:04;;;;;;;8.82;3.08;;;;;;;;;;4970301;28;20188;-68
2023/08/13 02:09:29;;;;;;;10.70;3.03;;;;;;;;;;4970105;28;20202;-68
2023/08/13 02:11:55;;;;;;;7.03;3.10;;;;;;;;;;4967345;28;20904;-68
2023/08/13 02:14:20;;;;;;;8.93;3.85;;;;;;;;;;4969938;28;20184;-68
2023/08/13 02:16:45;;;;;;;7.13;2.88;;;;;;;;;;4969003;28;20534;-68
2023/08/13 02:19:10;;;;;;;17.98;3.10;;;;;;;;;;4964787;28;20313;-68
2023/08/13 02:21:35;;;;;;;12.57;4.55;;;;;;;;;;4967160;28;20193;-68
2023/08/13 02:24:01;;;;;;;8.30;3.35;;;;;;;;;;4968319;28;20200;-68
2023/08/13 02:26:26;;;;;;;8.82;4.00;;;;;;;;;;4967339;28;20187;-68
2023/08/13 02:28:51;;;;;;;12.55;3.20;;;;;;;;;;4970538;28;20270;-69
2023/08/13 02:31:16;;;;;;;10.73;2.90;;;;;;;;;;4968098;28;20275;-68
2023/08/13 02:33:41;;;;;;;9.65;4.03;;;;;;;;;;4968200;28;20247;-68
2023/08/13 02:36:07;;;;;;;7.72;3.30;;;;;;;;;;4967504;28;20208;-68
2023/08/13 02:38:32;;;;;;;10.98;3.15;;;;;;;;;;4968635;28;20478;-68
2023/08/13 02:40:57;;;;;;;7.43;3.40;;;;;;;;;;4968536;28;20192;-68
2023/08/13 02:43:26;;;;;;;8.43;3.10;;;;;;;;;;4978770;23;20239;-69
2023/08/13 02:45:51;;;;;;;10.07;3.13;;;;;;;;;;4985931;28;20198;-69
2023/08/13 02:48:16;;;;;;;12.32;3.78;;;;;;;;;;4988495;28;21355;-69
2023/08/13 02:50:41;;;;;;;7.72;2.70;;;;;;;;;;4988851;28;20672;-69
2023/08/13 02:53:07;;;;;;;10.52;2.60;;;;;;;;;;4982975;28;20211;-69
2023/08/13 02:55:32;;;;;;;5.30;3.28;;;;;;;;;;4975003;28;20184;-70
2023/08/13 02:57:57;;;;;;;12.07;2.95;;;;;;;;;;4975691;28;20219;-70
2023/08/13 03:00:22;;;;;;;8.80;3.10;;;;;;;;;;4975995;28;20275;-70
2023/08/13 03:02:48;;;;;;;10.57;3.10;;;;;;;;;;4976859;28;20219;-70
2023/08/13 03:05:13;;;;;;;9.85;3.25;;;;;;;;;;4976717;28;20635;-70
2023/08/13 03:07:38;;;;;;;10.85;3.72;;;;;;;;;;4975418;28;20636;-69
2023/08/13 03:10:03;;;;;;;7.32;3.00;;;;;;;;;;4978556;28;20191;-69
2023/08/13 03:12:29;;;;;;;12.25;4.03;;;;;;;;;;4974649;28;20224;-69
2023/08/13 03:14:54;;;;;;;5.72;3.30;;;;;;;;;;4976284;28;20183;-69
2023/08/13 03:17:19;;;;;;;9.18;3.28;;;;;;;;;;4969332;28;20657;-69
2023/08/13 03:19:44;;;;;;;6.47;2.50;;;;;;;;;;4979150;28;20219;-69
2023/08/13 03:22:10;;;;;;;9.77;3.33;;;;;;;;;;4977355;28;21113;-69
2023/08/13 03:24:35;;;;;;;11.25;3.90;;;;;;;;;;4979129;28;20275;-68
2023/08/13 03:27:00;;;;;;;13.20;3.70;;;;;;;;;;4976903;28;20617;-69
2023/08/13 03:29:25;;;;;;;9.77;3.08;;;;;;;;;;4976143;28;20662;-69
2023/08/13 03:31:50;;;;;;;7.35;3.17;;;;;;;;;;4978863;28;20637;-69
2023/08/13 03:34:16;;;;;;;9.40;2.95;;;;;;;;;;4978991;28;20941;-70
2023/08/13 03:36:41;;;;;;;9.93;4.82;;;;;;;;;;4976106;28;20654;-69
2023/08/13 03:39:06;;;;;;;11.18;3.03;;;;;;;;;;4976524;28;20191;-69
2023/08/13 03:41:31;;;;;;;9.05;2.90;;;;;;;;;;4976370;28;20188;-68
2023/08/13 03:43:56;;;;;;;6.68;3.13;;;;;;;;;;4976234;28;20219;-69
2023/08/13 03:46:22;;;;;;;8.13;2.53;;;;;;;;;;4976155;28;20183;-70
2023/08/13 03:48:47;;;;;;;13.07;2.60;;;;;;;;;;4976125;28;20195;-70
2023/08/13 03:51:12;;;;;;;10.40;2.53;;;;;;;;;;4976841;28;20190;-70
2023/08/13 03:53:37;;;;;;;7.85;2.65;;;;;;;;;;4976209;28;20326;-70
2023/08/13 03:56:06;;;;;;;8.88;2.97;;;;;;;;;;4976791;28;20184;-70
2023/08/13 03:58:31;;;;;;;7.30;3.33;;;;;;;;;;4977014;28;20195;-70
2023/08/13 04:01:02;;;;;;;6.30;2.65;;;;;;;;;;4977788;28;20179;-70
2023/08/13 04:03:28;;;;;;;7.30;2.53;;;;;;;;;;4976795;28;20215;-70
2023/08/13 04:05:53;;;;;;;8.23;2.47;;;;;;;;;;4976284;28;20199;-70
2023/08/13 04:08:18;;;;;;;9.68;2.92;;;;;;;;;;4979051;28;21107;-70
2023/08/13 04:10:43;;;;;;;8.30;3.65;;;;;;;;;;4978025;28;20673;-70
2023/08/13 04:13:08;;;;;;;7.22;3.08;;;;;;;;;;4975754;28;20223;-70
2023/08/13 04:15:34;;;;;;;7.57;3.25;;;;;;;;;;4980993;28;20198;-70
2023/08/13 04:17:59;;;;;;;12.88;4.43;;;;;;;;;;4981030;28;20216;-70
2023/08/13 04:20:24;;;;;;;7.70;3.00;;;;;;;;;;4982186;28;20191;-70
2023/08/13 04:22:49;;;;;;;12.38;3.50;;;;;;;;;;4983635;28;20207;-69
2023/08/13 04:25:14;;;;;;;9.05;2.83;;;;;;;;;;4980730;28;21063;-70
2023/08/13 04:27:40;;;;;;;8.20;3.30;;;;;;;;;;4979599;28;20200;-70
2023/08/13 04:30:05;;;;;;;9.68;3.00;;;;;;;;;;4974681;28;20183;-70
2023/08/13 04:32:32;;;;;;;12.32;3.05;;;;;;;;;;4978553;28;20728;-70
2023/08/13 04:34:57;;;;;;;13.48;3.30;;;;;;;;;;4981150;28;20981;-70
2023/08/13 04:37:22;;;;;;;7.03;2.95;;;;;;;;;;4977822;28;20291;-70
2023/08/13 04:39:47;;;;;;;5.43;2.88;;;;;;;;;;4980802;28;20187;-70
2023/08/13 04:42:13;;;;;;;9.93;3.30;;;;;;;;;;4979807;28;20861;-70
2023/08/13 04:44:38;;;;;;;12.02;4.22;;;;;;;;;;4978997;28;20334;-71
2023/08/13 04:47:04;;;;;;;9.80;3.03;;;;;;;;;;4978106;28;21108;-70
2023/08/13 04:49:29;;;;;;;12.93;3.17;;;;;;;;;;4976114;28;20190;-70
2023/08/13 04:51:54;;;;;;;6.90;3.17;;;;;;;;;;4978332;28;20711;-70
2023/08/13 04:54:19;;;;;;;9.38;3.60;;;;;;;;;;4976588;28;20196;-70
2023/08/13 04:56:44;;;;;;;8.15;3.45;;;;;;;;;;4976187;28;20230;-71
2023/08/13 04:59:10;;;;;;;9.57;3.08;;;;;;;;;;4978517;28;20796;-70
2023/08/13 05:01:35;;;;;;;6.60;2.22;;;;;;;;;;4978168;28;20574;-71
2023/08/13 05:04:00;;;;;;;16.58;3.22;;;;;;;;;;4980017;28;20199;-70
2023/08/13 05:06:26;;;;;;;8.80;2.78;;;;;;;;;;4978704;28;20183;-68
2023/08/13 05:08:51;;;;;;;8.52;3.50;;;;;;;;;;4978669;28;20183;-70
2023/08/13 05:11:16;;;;;;;9.85;3.05;;;;;;;;;;4978511;28;20775;-70
2023/08/13 05:13:42;;;;;;;9.63;4.13;;;;;;;;;;4974954;28;20211;-70
2023/08/13 05:16:07;;;;;;;9.68;3.05;;;;;;;;;;4978914;28;20266;-70
2023/08/13 05:18:32;;;;;;;8.50;2.75;;;;;;;;;;4976014;28;20238;-70
2023/08/13 05:20:58;;;;;;;11.68;3.10;;;;;;;;;;4977720;28;20183;-69
2023/08/13 05:23:23;;;;;;;6.32;2.80;;;;;;;;;;4979273;28;20218;-69
2023/08/13 05:25:49;;;;;;;9.23;3.15;;;;;;;;;;4977629;28;20501;-69
2023/08/13 05:28:14;;;;;;;8.50;3.00;;;;;;;;;;4977212;28;20192;-69
2023/08/13 05:30:39;;;;;;;9.52;3.15;;;;;;;;;;4976330;28;20286;-70
2023/08/13 05:33:05;;;;;;;11.25;2.90;;;;;;;;;;4968213;28;20626;-69
2023/08/13 05:35:30;;;;;;;9.82;2.78;;;;;;;;;;4975371;28;20898;-70
2023/08/13 05:37:55;;;;;;;8.70;3.15;;;;;;;;;;4974389;28;20299;-70
2023/08/13 05:40:20;;;;;;;11.27;2.83;;;;;;;;;;4976912;28;20219;-70
2023/08/13 05:42:46;;;;;;;4.45;2.42;;;;;;;;;;4975600;28;20219;-70
2023/08/13 05:45:11;;;;;;;6.40;3.33;;;;;;;;;;4977662;28;20616;-70
2023/08/13 05:47:37;;;;;;;9.07;2.70;;;;;;;;;;4978656;28;20199;-70
2023/08/13 05:50:02;;;;;;;16.63;3.28;;;;;;;;;;4978878;28;20213;-70
2023/08/13 05:52:29;;;;;;;6.38;2.63;;;;;;;;;;4977141;28;20330;-70
2023/08/13 05:54:54;;;;;;;7.50;2.47;;;;;;;;;;4976860;28;20207;-71
2023/08/13 05:57:19;;;;;;;8.32;2.63;;;;;;;;;;4976185;28;20190;-70
2023/08/13 05:59:44;;;;;;;5.45;2.75;;;;;;;;;;4976528;28;20230;-70
2023/08/13 06:02:10;;;;;;;11.98;2.85;;;;;;;;;;4969345;28;20196;-70
2023/08/13 06:04:35;;;;;;;9.25;3.45;;;;;;;;;;4977292;28;20188;-70
2023/08/13 06:07:03;;;;;;;15.32;5.05;;;;;;;;;;4978939;28;21127;-70
2023/08/13 06:09:28;;;;;;;9.02;2.33;;;;;;;;;;4975697;28;20199;-70
2023/08/13 06:11:54;;;;;;;8.70;2.70;;;;;;;;;;4978840;28;20219;-70
2023/08/13 06:14:19;;;;;;;8.90;2.78;;;;;;;;;;4975518;28;20249;-70
2023/08/13 06:16:44;;;;;;;12.85;3.33;;;;;;;;;;4979197;28;20314;-70
2023/08/13 06:19:09;;;;;;;6.25;2.30;;;;;;;;;;4975581;28;20570;-70
2023/08/13 06:21:35;;;;;;;9.65;2.80;;;;;;;;;;4977762;28;20408;-69
2023/08/13 06:24:00;;;;;;;11.38;3.72;;;;;;;;;;4977534;28;20292;-70
2023/08/13 06:26:25;;;;;;;8.00;2.72;;;;;;;;;;4977432;28;20263;-70
2023/08/13 06:28:50;;;;;;;8.50;2.65;;;;;;;;;;4978129;28;20572;-70
2023/08/13 06:31:16;;;;;;;10.82;3.15;;;;;;;;;;4977296;28;20273;-70
2023/08/13 06:33:41;;;;;;;8.32;2.67;;;;;;;;;;4973788;28;20226;-70
2023/08/13 06:36:06;;;;;;;18.45;3.55;;;;;;;;;;4974091;28;20186;-70
2023/08/13 06:38:32;;;;;;;6.45;2.50;;;;;;;;;;4974891;28;20187;-70
2023/08/13 06:41:05;;;;;;;11.07;2.60;;;;;;;;;;4976117;28;20187;-70
2023/08/13 06:43:30;;;;;;;4.28;1.95;;;;;;;;;;4979193;28;20375;-70
2023/08/13 06:45:55;;;;;;;11.02;2.20;;;;;;;;;;4974479;28;20357;-70
2023/08/13 06:48:20;;;;;;;7.60;2.55;;;;;;;;;;4979251;28;20195;-70
2023/08/13 06:50:48;;;;;;;4.72;2.00;;;;;;;;;;4976965;28;20985;-70
2023/08/13 06:53:13;;;;;;;8.90;2.75;;;;;;;;;;4977406;28;20242;-70
2023/08/13 06:55:38;;;;;;;9.23;2.15;;;;;;;;;;4977498;28;20830;-70
2023/08/13 06:58:04;;;;;;;4.68;2.00;;;;;;;;;;4979316;28;20187;-70
2023/08/13 07:00:29;;;;;;;8.75;2.40;;;;;;;;;;4976089;28;20183;-69
2023/08/13 07:02:54;;;;;;;11.43;2.85;;;;;;;;;;4971627;28;20911;-70
2023/08/13 07:05:19;;;;;;;9.05;2.55;;;;;;;;;;4975533;28;20246;-70
2023/08/13 07:07:45;;;;;;;10.88;2.58;;;;;;;;;;4977634;28;20626;-69
2023/08/13 07:10:10;;;;;;;10.57;2.60;;;;;;;;;;4977920;28;20199;-69
2023/08/13 07:12:36;;;;;;;8.13;2.58;;;;;;;;;;4972722;28;20799;-69
2023/08/13 07:15:03;;;;;;;4.88;2.30;;;;;;;;;;4978032;28;20610;-69
2023/08/13 07:17:29;;;;;;;5.63;2.67;;;;;;;;;;4971277;28;20176;-69
2023/08/13 07:19:54;;;;;;;7.22;2.10;;;;;;;;;;4976169;28;20182;-69
2023/08/13 07:22:21;;;;;;;7.10;2.50;;;;;;;;;;4976842;28;20544;-69
2023/08/13 07:24:46;;;;;;;5.18;1.70;;;;;;;;;;4972480;28;20187;-70
2023/08/13 07:27:11;;;;;;;7.80;3.03;;;;;;;;;;4974615;28;20237;-69
2023/08/13 07:29:37;;;;;;;8.75;2.45;;;;;;;;;;4976929;28;20203;-69
2023/08/13 07:32:02;;;;;;;9.70;2.83;;;;;;;;;;4974013;28;20203;-69
2023/08/13 07:34:27;;;;;;;5.28;2.25;;;;;;;;;;4976602;28;20184;-70
2023/08/13 07:36:53;;;;;;;8.32;2.25;;;;;;;;;;4974733;28;20342;-69
2023/08/13 07:39:18;;;;;;;7.10;2.65;;;;;;;;;;4973469;28;20551;-69
2023/08/13 07:41:43;;;;;;;11.20;2.67;;;;;;;;;;4975753;28;20199;-69
2023/08/13 07:44:08;;;;;;;6.47;2.03;;;;;;;;;;4992522;28;20233;-69
2023/08/13 07:46:33;;;;;;;6.55;2.80;;;;;;;;;;4975194;28;20202;-69
2023/08/13 07:48:59;;;;;;;18.05;2.80;;;;;;;;;;4977459;28;20249;-70
2023/08/13 07:51:25;;;;;;;8.70;2.70;;;;;;;;;;4974064;28;20191;-70
2023/08/13 07:53:50;;;;;;;3.08;1.83;;;;;;;;;;4993112;28;20207;-70
2023/08/13 07:56:15;;;;;;;7.80;2.00;;;;;;;;;;4979444;28;20240;-70
2023/08/13 07:58:40;;;;;;;7.25;2.55;;;;;;;;;;4976516;28;20263;-70
2023/08/13 08:01:06;;;;;;;11.05;3.10;;;;;;;;;;4974977;28;20309;-69
2023/08/13 08:03:31;;;;;;;6.85;3.17;;;;;;;;;;4973153;28;20222;-70
2023/08/13 08:05:56;;;;;;;7.43;2.42;;;;;;;;;;4978953;28;20187;-69
2023/08/13 08:08:21;;;;;;;5.13;2.58;;;;;;;;;;4979269;28;20194;-69
2023/08/13 08:10:47;;;;;;;6.25;2.50;;;;;;;;;;4979221;28;20272;-69
2023/08/13 08:13:12;;;;;;;3.58;1.83;;;;;;;;;;4978238;28;20593;-69
2023/08/13 08:15:37;;;;;;;5.47;2.00;;;;;;;;;;4977809;28;20968;-69
2023/08/13 08:18:03;;;;;;;4.82;1.83;;;;;;;;;;4977471;28;20270;-70
2023/08/13 08:20:28;;;;;;;5.60;1.70;;;;;;;;;;4981210;28;20199;-70
2023/08/13 08:22:53;;;;;;;6.35;1.55;;;;;;;;;;4976232;28;20269;-70
2023/08/13 08:25:19;;;;;;;6.80;1.45;;;;;;;;;;4979246;28;20190;-70
2023/08/13 08:27:44;;;;;;;5.90;1.30;;;;;;;;;;4980261;28;20195;-70
2023/08/13 08:30:10;;;;;;;2.25;1.10;;;;;;;;;;4978062;28;20188;-70
2023/08/13 08:32:35;;;;;;;4.53;1.15;;;;;;;;;;4974082;28;20706;-70
2023/08/13 08:35:00;;;;;;;3.92;1.30;;;;;;;;;;4979862;28;20188;-70
2023/08/13 08:37:26;;;;;;;6.30;1.20;;;;;;;;;;4972470;28;20192;-70
2023/08/13 08:39:51;;;;;;;3.25;1.13;;;;;;;;;;4976767;28;20187;-70
2023/08/13 08:42:17;;;;;;;10.30;2.20;;;;;;;;;;4973283;28;20969;-70
2023/08/13 08:44:43;;;;;;;7.28;1.20;;;;;;;;;;4991731;23;20274;-67
2023/08/13 08:47:08;;;;;;;5.57;1.25;;;;;;;;;;4976983;28;20191;-66
2023/08/13 08:49:34;;;;;;;5.65;2.22;;;;;;;;;;4977854;28;20186;-66
2023/08/13 08:51:59;;;;;;;3.38;1.45;;;;;;;;;;4980185;28;20212;-66
2023/08/13 08:54:24;;;;;;;6.18;2.20;;;;;;;;;;4973886;28;20262;-66
2023/08/13 08:56:50;;;;;;;5.35;2.08;;;;;;;;;;4956994;28;20188;-67
2023/08/13 08:59:17;;;;;;;5.00;1.90;;;;;;;;;;4979096;28;20758;-69
2023/08/13 09:01:42;;;;;;;6.78;1.48;;;;;;;;;;4979043;28;20270;-66
2023/08/13 09:04:08;;;;;;;6.10;1.55;;;;;;;;;;4980891;28;20210;-66
2023/08/13 09:06:52;;;;;;;6.43;1.70;;;;;;;;;;4977294;28;20229;-66
2023/08/13 09:09:17;;;;;;;6.03;2.13;;;;;;;;;;4975898;28;20188;-66
2023/08/13 09:11:42;;;;;;;7.90;2.25;;;;;;;;;;4979340;28;20257;-67
2023/08/13 09:14:08;;;;;;;7.53;1.65;;;;;;;;;;4980232;28;20595;-66
2023/08/13 09:16:35;;;;;;;9.63;1.73;;;;;;;;;;4977892;28;20179;-67
2023/08/13 09:19:01;;;;;;;7.68;1.73;;;;;;;;;;4963841;28;20184;-66
2023/08/13 09:21:26;;;;;;;4.60;1.45;;;;;;;;;;4978921;28;20187;-67
2023/08/13 09:23:53;;;;;;;9.15;2.33;;;;;;;;;;4960813;28;20257;-67
2023/08/13 09:26:19;;;;;;;2.80;1.27;;;;;;;;;;4978159;28;20191;-67
2023/08/13 09:28:44;;;;;;;6.60;2.30;;;;;;;;;;4981540;28;20193;-68
2023/08/13 09:31:09;;;;;;;5.47;2.10;;;;;;;;;;4978626;28;20442;-67
2023/08/13 09:33:34;;;;;;;6.05;1.60;;;;;;;;;;4976070;28;20215;-67
2023/08/13 09:36:00;;;;;;;8.30;1.98;;;;;;;;;;4953836;28;20279;-67
2023/08/13 09:38:25;;;;;;;5.30;1.40;;;;;;;;;;4952640;28;20185;-67
2023/08/13 09:40:51;;;;;;;11.82;2.75;;;;;;;;;;4954696;28;21050;-67
2023/08/13 09:43:20;;;;;;;9.35;1.95;;;;;;;;;;4955040;28;20215;-67
2023/08/13 09:45:46;;;;;;;10.38;2.33;;;;;;;;;;4942849;28;20239;-66
2023/08/13 09:48:14;;;;;;;5.75;2.22;;;;;;;;;;4933851;28;20188;-67
2023/08/13 09:50:40;;;;;;;5.70;1.70;;;;;;;;;;4957367;28;20223;-66
2023/08/13 09:53:07;;;;;;;6.78;2.00;;;;;;;;;;4935947;28;20224;-68
2023/08/13 09:55:34;;;;;;;6.53;1.63;;;;;;;;;;4958063;28;20187;-67
2023/08/13 09:58:01;;;;;;;8.02;2.08;;;;;;;;;;4956618;28;20208;-67
2023/08/13 10:00:27;;;;;;;7.88;2.20;;;;;;;;;;4956720;28;20780;-66
2023/08/13 10:02:52;;;;;;;4.07;1.73;;;;;;;;;;4956430;28;20679;-67
2023/08/13 10:05:17;;;;;;;5.22;2.60;;;;;;;;;;4956525;28;20187;-67
2023/08/13 10:07:44;;;;;;;9.77;2.00;;;;;;;;;;4972336;28;20742;-68
2023/08/13 10:10:09;;;;;;;7.32;1.98;;;;;;;;;;4977695;28;20195;-67
2023/08/13 10:12:35;;;;;;;9.98;2.28;;;;;;;;;;4976341;28;20211;-68
2023/08/13 10:15:00;;;;;;;7.93;1.80;;;;;;;;;;4979800;28;20199;-69
2023/08/13 10:17:27;;;;;;;5.90;1.73;;;;;;;;;;4978319;28;20267;-67
2023/08/13 10:19:54;;;;;;;10.43;1.80;;;;;;;;;;4978355;28;20180;-67
2023/08/13 10:22:32;;;;;;;3.42;1.73;;;;;;;;;;4976527;28;20281;-67
2023/08/13 10:24:58;;;;;;;5.97;1.75;;;;;;;;;;4977608;28;20713;-68
2023/08/13 10:27:23;;;;;;;3.42;1.58;;;;;;;;;;4956808;28;20199;-67
2023/08/13 10:29:49;;;;;;;4.45;1.75;;;;;;;;;;4976966;28;20180;-67
2023/08/13 10:32:15;;;;;;;6.82;2.03;;;;;;;;;;4977518;28;20204;-66
2023/08/13 10:34:43;;;;;;;6.30;1.98;;;;;;;;;;4978697;28;20199;-67
2023/08/13 10:37:17;;;;;;;9.23;2.60;;;;;;;;;;4978417;28;20192;-67
2023/08/13 10:39:43;;;;;;;6.15;1.98;;;;;;;;;;4973015;28;20271;-67
2023/08/13 10:42:27;;;;;;;8.10;2.15;;;;;;;;;;4966588;28;20219;-66
2023/08/13 10:44:53;;;;;;;11.52;2.08;;;;;;;;;;4959453;28;20223;-66
2023/08/13 10:47:18;;;;;;;5.38;1.75;;;;;;;;;;4974361;28;20209;-66
2023/08/13 10:49:43;;;;;;;5.88;1.70;;;;;;;;;;4979116;28;20188;-67
2023/08/13 10:52:09;;;;;;;6.68;1.60;;;;;;;;;;4976705;28;20207;-66
2023/08/13 10:54:34;;;;;;;11.50;1.88;;;;;;;;;;4977814;28;20207;-66
2023/08/13 10:57:00;;;;;;;6.10;1.75;;;;;;;;;;4977737;28;20552;-66
2023/08/13 10:59:33;;;;;;;5.70;2.13;;;;;;;;;;4974826;28;20180;-67
2023/08/13 11:02:10;;;;;;;9.32;2.05;;;;;;;;;;4978749;28;20656;-67
2023/08/13 11:04:36;;;;;;;7.65;1.88;;;;;;;;;;4976202;28;20221;-68
2023/08/13 11:07:01;;;;;;;7.25;2.70;;;;;;;;;;4958911;28;20192;-66
2023/08/13 11:09:28;;;;;;;5.60;1.65;;;;;;;;;;4977859;28;20184;-66
2023/08/13 11:11:54;;;;;;;9.70;2.78;;;;;;;;;;4974518;28;20204;-66
2023/08/13 11:14:19;;;;;;;8.85;2.05;;;;;;;;;;4964598;28;20234;-67
2023/08/13 11:16:47;;;;;;;6.20;2.28;;;;;;;;;;4956347;28;20183;-66
2023/08/13 11:19:12;;;;;;;11.80;2.00;;;;;;;;;;4953599;28;20225;-67
2023/08/13 11:21:37;;;;;;;7.65;1.90;;;;;;;;;;4953591;28;20903;-68
2023/08/13 11:24:04;;;;;;;5.32;1.65;;;;;;;;;;4953586;28;20307;-68
2023/08/13 11:26:30;;;;;;;4.03;1.80;;;;;;;;;;4955913;28;20239;-66
2023/08/13 11:28:57;;;;;;;6.43;2.42;;;;;;;;;;4952142;28;20686;-67
2023/08/13 11:31:23;;;;;;;11.60;2.78;;;;;;;;;;4951449;28;20176;-67
2023/08/13 11:33:49;;;;;;;4.50;1.88;;;;;;;;;;4951353;28;20219;-67
2023/08/13 11:36:14;;;;;;;8.43;1.67;;;;;;;;;;4953614;28;20716;-67
2023/08/13 11:38:39;;;;;;;6.53;2.10;;;;;;;;;;4954355;28;21370;-67
2023/08/13 11:41:11;;;;;;;7.03;1.90;;;;;;;;;;4954888;28;20781;-66
2023/08/13 11:43:36;;;;;;;6.28;1.90;;;;;;;;;;4967864;28;20234;-67
2023/08/13 11:46:03;;;;;;;6.03;2.50;;;;;;;;;;4952460;28;20403;-67
2023/08/13 11:48:30;;;;;;;8.38;2.25;;;;;;;;;;4975325;28;20295;-67
2023/08/13 11:50:57;;;;;;;7.82;2.78;;;;;;;;;;4978677;28;20188;-68
2023/08/13 11:53:23;;;;;;;8.05;2.10;;;;;;;;;;4959915;28;20215;-68
2023/08/13 11:55:48;;;;;;;7.70;1.60;;;;;;;;;;4976548;28;20254;-67
2023/08/13 11:58:18;;;;;;;6.85;2.22;;;;;;;;;;4958214;28;20190;-68
2023/08/13 12:00:44;;;;;;;5.25;1.73;;;;;;;;;;4975233;28;20187;-67
2023/08/13 12:03:12;;;;;;;8.10;2.10;;;;;;;;;;4957180;28;20589;-68
2023/08/13 12:05:39;;;;;;;5.65;1.90;;;;;;;;;;4976174;28;20293;-67
2023/08/13 12:08:04;;;;;;;6.65;1.90;;;;;;;;;;4975212;28;20180;-67
2023/08/13 12:10:30;;;;;;;5.45;1.73;;;;;;;;;;4974868;28;20218;-68
2023/08/13 12:12:56;;;;;;;6.88;1.67;;;;;;;;;;4965830;28;20709;-67
2023/08/13 12:15:23;;;;;;;6.83;2.40;;;;;;;;;;4977893;28;20187;-67
2023/08/13 12:17:48;;;;;;;8.20;2.67;;;;;;;;;;4977360;28;20429;-67
2023/08/13 12:20:13;;;;;;;9.45;2.85;;;;;;;;;;4975967;28;20192;-67
2023/08/13 12:22:39;;;;;;;4.97;2.35;;;;;;;;;;4978343;28;20200;-67
2023/08/13 12:25:05;;;;;;;8.18;2.13;;;;;;;;;;4976744;28;20243;-67
2023/08/13 12:27:31;;;;;;;8.85;2.00;;;;;;;;;;4975001;28;20234;-67
2023/08/13 12:29:56;;;;;;;5.63;2.25;;;;;;;;;;4974932;28;20188;-68
2023/08/13 12:32:21;;;;;;;3.15;1.33;;;;;;;;;;4974619;28;21050;-68
2023/08/13 12:34:46;;;;;;;8.27;2.57;;;;;;;;;;4962703;28;20716;-67
2023/08/13 12:37:12;;;;;;;4.53;1.70;;;;;;;;;;4979745;28;20437;-67
2023/08/13 12:39:37;;;;;;;6.20;2.20;;;;;;;;;;4979796;28;20444;-67
2023/08/13 12:42:02;;;;;;;7.87;2.20;;;;;;;;;;4980483;28;20429;-68
2023/08/13 12:44:27;;;;;;;9.25;2.80;;;;;;;;;;4962027;28;20596;-67
2023/08/13 12:46:52;;;;;;;9.02;2.03;;;;;;;;;;4962121;28;20238;-65
2023/08/13 12:49:18;;;;;;;6.20;2.37;;;;;;;;;;4981103;28;20191;-66
2023/08/13 12:51:43;;;;;;;7.50;1.70;;;;;;;;;;4979143;28;20572;-66
2023/08/13 12:54:08;;;;;;;12.52;2.53;;;;;;;;;;4981154;28;20955;-66
2023/08/13 12:56:33;;;;;;;7.90;2.40;;;;;;;;;;4979921;28;20618;-67
2023/08/13 12:58:58;;;;;;;10.73;1.67;;;;;;;;;;4982626;28;20665;-67
2023/08/13 13:01:24;;;;;;;6.28;2.25;;;;;;;;;;4982166;28;20893;-67
2023/08/13 13:03:49;;;;;;;4.43;2.70;;;;;;;;;;4961921;28;20350;-66
2023/08/13 13:06:14;;;;;;;7.37;2.50;;;;;;;;;;4952917;28;20183;-67
2023/08/13 13:08:39;;;;;;;6.60;2.17;;;;;;;;;;4979378;28;20525;-67
2023/08/13 13:11:05;;;;;;;5.43;2.05;;;;;;;;;;4980077;28;20741;-67
2023/08/13 13:13:30;;;;;;;6.88;1.90;;;;;;;;;;4961368;28;20215;-67
2023/08/13 13:15:55;;;;;;;6.03;2.00;;;;;;;;;;4977717;28;20184;-67
2023/08/13 13:18:20;;;;;;;9.03;1.97;;;;;;;;;;4961860;28;20187;-67
2023/08/13 13:20:46;;;;;;;4.97;1.73;;;;;;;;;;4980652;28;20437;-67
2023/08/13 13:23:11;;;;;;;8.65;2.97;;;;;;;;;;4964464;28;20247;-67
2023/08/13 13:25:38;;;;;;;9.18;3.38;;;;;;;;;;4980742;28;20278;-67
2023/08/13 13:28:03;;;;;;;6.03;2.30;;;;;;;;;;4980341;28;20198;-67
2023/08/13 13:30:28;;;;;;;7.07;2.88;;;;;;;;;;4963234;28;20308;-68
2023/08/13 13:32:54;;;;;;;9.43;3.67;;;;;;;;;;4977038;28;21089;-67
2023/08/13 13:35:19;;;;;;;9.45;3.05;;;;;;;;;;4980189;28;20712;-68
2023/08/13 13:37:45;;;;;;;17.15;3.33;;;;;;;;;;4979371;28;20223;-67
2023/08/13 13:40:10;;;;;;;9.20;3.63;;;;;;;;;;4979710;28;20238;-67
2023/08/13 13:42:36;;;;;;;11.98;3.33;;;;;;;;;;4979634;28;21116;-67
2023/08/13 13:45:01;;;;;;;6.32;2.53;;;;;;;;;;4978849;28;20274;-67
2023/08/13 13:47:27;;;;;;;5.20;2.47;;;;;;;;;;4980217;28;20187;-67
2023/08/13 13:49:52;;;;;;;8.48;2.70;;;;;;;;;;4973972;28;20645;-67
2023/08/13 13:52:17;;;;;;;8.32;3.00;;;;;;;;;;4981152;28;20211;-67
2023/08/13 13:54:42;;;;;;;6.70;2.03;;;;;;;;;;4962360;28;20215;-66
2023/08/13 13:57:08;;;;;;;4.93;1.60;;;;;;;;;;4980157;28;20195;-67
2023/08/13 13:59:33;;;;;;;2.47;1.40;;;;;;;;;;4961982;28;20191;-67
2023/08/13 14:01:58;;;;;;;1.23;1.08;;;;;;;;;;4981069;28;20496;-68
2023/08/13 14:04:25;;;;;;;1.23;0.77;;;;;;;;;;4980174;28;20210;-68
2023/08/13 14:06:51;;;;;;;4.63;0.90;;;;;;;;;;4974383;28;20224;-68
2023/08/13 14:09:16;;;;;;;1.15;0.60;;;;;;;;;;4980482;28;20180;-68
2023/08/13 14:11:41;;;;;;;1.38;0.43;;;;;;;;;;4979938;28;20234;-66
2023/08/13 14:14:06;;;;;;;3.15;0.75;;;;;;;;;;4979669;28;20200;-67
2023/08/13 14:16:32;;;;;;;0.77;0.57;;;;;;;;;;4978294;28;20301;-67
2023/08/13 14:18:57;;;;;;;0.82;0.60;;;;;;;;;;4959375;28;20188;-68
2023/08/13 14:21:22;;;;;;;2.08;0.70;;;;;;;;;;4973138;28;20207;-68
2023/08/13 14:23:48;;;;;;;2.15;0.88;;;;;;;;;;4977219;28;20216;-68
2023/08/13 14:26:13;;;;;;;2.15;0.82;;;;;;;;;;4974755;28;20210;-67
2023/08/13 14:28:38;;;;;;;1.80;0.63;;;;;;;;;;4960081;28;20184;-67
2023/08/13 14:31:03;;;;;;;1.98;1.00;;;;;;;;;;4957735;28;20549;-67
2023/08/13 14:33:29;;;;;;;3.08;2.53;;;;;;;;;;4976985;28;20207;-67